Terminal Aerodrome Forecast
Issued by NWS Jackson, MS

Home | Current Version | Previous Version | Text Only | Print | Product List | Glossary On
Versions: 1 2 3 4 5 6 7 8 9 10 11 12 13 14 15 16 17 18 19 20
000
FTUS44 KJAN 262354
TAFGLH
TAF
KGLH 262354Z 2700/2724 33006KT P6SM FEW035 BKN060
     FM270900 30004KT 5SM BR FEW070
     FM271400 30008KT P6SM SCT060=

USA.gov is the U.S. government's official web portal to all federal, state and local government web resources and services.